My Meet Scores
Riley Schwertley, Phenom Gymnastics - MyMeetScores.com
Top100 | Top Teams | Upcoming Meets | Completed Meets | Latest | Add Scores | Help| Support | Bookmark and Share

Riley Schwertley, Phenom Gymnastics
Personal Bests
LevelVault BarsBeamFloorAA
39.4509.725 9.7009.67538.475
48.6509.775 9.8509.67537.275
59.0509.500 9.6509.67537.600
78.7759.325 9.7259.22536.225
XB9.2009.525 9.5009.57537.800
Scores on America's Top 100as of 10.29.2020
Year Level Vault Bars Beam Floor AA
2018 49.850

Click here to view our exclusive Top 100 Collection
Meet Scores
Date Meet Team Session Level Division Vault Bars Beam Floor AA
2020-03-06 2020 Flip'r Invitational Phenom Gymnastics 4 7 SR A 8.775 12T 9.325 5 9.100 6 8.900 14 36.100 7
2020-02-21 Kinetic Classic Phenom Gymnastics 02 7 Middle 8.200 45 9.250 24T 9.300 9T 8.600 41T 35.350 35
2020-01-31 Big Chill Phenom Gymnastics 1 7 12 & 13 8.375 12 9.075 7 9.725 1 9.050 7 36.225 6
2020-01-17 2020 Bravo Classic Phenom Gymnastics 9B 7 Jr 8.600 15 8.725 13 9.350 8 9.200 9 35.875 11
2019-12-20 Aspire Classic - 2019 Phenom Gymnastics 2B 7 Older 8.175 23 9.125 15 8.850 17T 9.225 17T 35.375 19
2019-12-13 MEGA Magic Classic 2019 Phenom Gymnastics 4A 7 Sr A 8.575 16 7.750 15 9.275 4 8.975 11 34.575 12
2019-03-22 Illinois Gymnastics State Championships Phenom Gymnastics 3 5 SR A 9.050 21 9.500 3 9.375 8 9.675 2 37.600 5
2019-03-01 NGCD Academy's 2019 Flip'r Invitational Phenom Gymnastics 11 5 Jr B 8.950 8 9.150 7 9.275 2 9.475 2T 36.850 5
2019-02-15 Big ClassicBIG CLASSIC Phenom Gymnastics 5B 5 Child D 7.950 14 9.400 1 9.650 1 9.025 2 36.025 3
2019-01-25 King Arthur Invitational Phenom Gymnastics 7 5 SR A 8.450 12 9.200 2 9.100 4T 8.650 6 35.400 4
2019-01-18 2019 Bravo Classic Phenom Gymnastics 2A 5 Jr 8.650 12T 9.325 4T 9.250 7 9.250 7T 36.475 7
2018-12-14 2018 Aspire Classic Phenom Gymnastics 8A 5 Middle 8.750 21 9.200 5 9.450 1 8.650 15T 36.050 9
2018-12-07 2018 MEGA Magic Classic Phenom Gymnastics B1 5 Jr B 8.700 12T 8.850 7T 8.425 10 9.000 9 34.975 10
2018-03-08 Level 4 & 5 State Phenom Gymnastics All 4 Jr D 8.525 23 9.550 1 9.850 2 9.350 5 37.275 4
2018-03-02 2018 Flip'r Invitational Phenom Gymnastics 6 4 Jr C Age 10 8.650 11 9.200 5 9.475 2 9.525 1 36.850 5
2018-02-16 Big Classic Phenom Gymnastics 10B 4 Child C 8.425 9 9.175 3T 9.650 1 9.675 1 36.925 1
2018-01-19 2018 Bravo Classic Phenom Gymnastics 12B 4 Sr 7.900 22 8.800 9T 9.700 1 9.625 2 36.025 7
2017-12-15 2017 Aspire Classic Phenom Gymnastics 3 4 Sr A 8.425 16 9.750 3T 9.400 3 9.400 1 36.975 4
2017-12-08 MEGA Magic Classic 2017 Phenom Gymnastics 1A 4 Jr B 7.900 20T 9.025 11 8.950 18 9.425 1 35.300 12
2017-11-16 Paul Hamm Thanksgiving Classic - Women Phenom Gymnastics 7 4 Middle 8.200 28 9.775 4 9.700 1 9.425 7T 37.100 8
2017-03-30 2017 Illinois Level 3 & 5 State Phenom Gymnastics All 3 Jr E 9.450 7T 9.725 2 9.700 1 9.600 1 38.475 2
2017-03-10 Lucky Invitational Phenom Gymnastics B03 3 Sr A 9.150 6T 9.650 4 9.500 1 9.675 2 37.975 1
2017-02-02 The Big Chill Phenom Gymnastics 1 3 9 Year Old 9.250 11T 9.400 5T 9.650 1 9.100 6 37.400 3
2017-01-20 2017 Bravo Classic Phenom Gymnastics 12B 3 9+yrs 8.900 21 9.625 3 9.375 2 9.575 2 37.475 5
2016-12-16 2016 Aspire Classic Phenom Gymnastics 10 3 Older 9.425 6T 9.625 3 9.300 4 9.625 1T 37.975 3
2016-12-09 MEGA Magic Classic 2016 Phenom Gymnastics 7A 3 Child C 8.750 12 9.600 1 9.300 1 9.325 2 36.975 2
2016-01-15 2016 Bravo Classic Phenom Gymnastics 9A XB 8+yrs 9.200 3 9.525 3 9.500 1 9.575 1 37.800 1
Get your scores on
a t-shirt, pin, or hoodie

www.lazysuits.com